Terminal Aerodrome Forecast
Issued by NWS Louisville, KY

Home | Current Version | Previous Version | Text Only | Print | Product List | Glossary On
Versions: 1 2 3 4 5 6 7 8 9 10 11 12 13 14 15 16 17
895
FTUS43 KLMK 101332 AAA
TAFBWG
TAF AMD
KBWG 101332Z 1014/1112 29008KT P6SM VCSH BKN025
      TEMPO 1014/1016 SCT025 BKN035
     FM101600 27009KT P6SM SCT035
     FM110100 27005KT P6SM BKN035
     FM110400 VRB03KT P6SM VCSH BKN025=

USA.gov is the U.S. government's official web portal to all federal, state and local government web resources and services.